createdAt,value
2018-11-01T00:00:41.672Z,101115.50
2018-11-01T00:01:44.275Z,101122.67
2018-11-01T00:02:47.184Z,101126.17
2018-11-01T00:03:50.071Z,101133.45
2018-11-01T00:04:52.663Z,101126.31
2018-11-01T00:05:55.252Z,101139.15
2018-11-01T00:06:57.840Z,101136.98
2018-11-01T00:08:00.427Z,101148.48
2018-11-01T00:09:03.531Z,101147.15
2018-11-01T00:10:06.327Z,101150.31
2018-11-01T00:11:08.919Z,101153.95
2018-11-01T00:12:11.499Z,101154.31
2018-11-01T00:13:14.080Z,101150.79
2018-11-01T00:14:16.671Z,101157.45
2018-11-01T00:15:19.281Z,101154.79
2018-11-01T00:16:22.020Z,101160.13
2018-11-01T00:17:24.623Z,101161.45
2018-11-01T00:18:27.202Z,101162.43
2018-11-01T00:19:29.911Z,101169.45
2018-11-01T00:20:32.531Z,101172.48
2018-11-01T00:21:35.127Z,101170.43
2018-11-01T00:22:37.839Z,101173.09
2018-11-01T00:23:40.443Z,101179.77
2018-11-01T00:24:43.143Z,101179.77
2018-11-01T00:25:45.793Z,101178.80
2018-11-01T00:26:48.543Z,101182.79
2018-11-01T00:27:51.136Z,101181.60
2018-11-01T00:28:53.730Z,101180.73
2018-11-01T00:29:56.415Z,101186.06
2018-11-01T00:30:59.029Z,101184.27
2018-11-01T00:32:01.623Z,101190.07
2018-11-01T00:33:04.375Z,101195.77
2018-11-01T00:34:06.964Z,101193.60
2018-11-01T00:35:09.716Z,101198.44
2018-11-01T00:36:12.308Z,101204.27
2018-11-01T00:37:14.899Z,101202.08
2018-11-01T00:38:17.507Z,101202.58
2018-11-01T00:39:20.091Z,101207.41
2018-11-01T00:40:22.787Z,101208.73
2018-11-01T00:41:25.375Z,101211.41
2018-11-01T00:42:27.982Z,101215.41
2018-11-01T00:43:30.578Z,101218.94
2018-11-01T00:44:33.191Z,101216.73
2018-11-01T00:45:35.914Z,101218.08
2018-11-01T00:46:38.515Z,101219.41
2018-11-01T00:47:41.135Z,101225.24
2018-11-01T00:48:43.767Z,101216.37
2018-11-01T00:49:46.351Z,101217.34
2018-11-01T00:50:49.046Z,101220.37
2018-11-01T00:51:51.640Z,101215.05
2018-11-01T00:52:54.247Z,101224.84
2018-11-01T00:53:56.858Z,101231.16
2018-11-01T00:54:59.455Z,101238.69
2018-11-01T00:56:02.156Z,101239.05
2018-11-01T00:57:04.943Z,101241.82
2018-11-01T00:58:07.543Z,101249.35
2018-11-01T00:59:10.152Z,101252.02
2018-11-01T01:00:14.315Z,101248.99
2018-11-01T01:01:16.936Z,101260.02
2018-11-01T01:02:19.543Z,101259.66
2018-11-01T01:03:22.148Z,101258.79
2018-11-01T01:04:24.743Z,101260.63
2018-11-01T01:05:27.342Z,101276.85
2018-11-01T01:06:29.958Z,101273.35
2018-11-01T01:07:32.579Z,101273.46
2018-11-01T01:08:35.171Z,101276.02
2018-11-01T01:09:37.755Z,101272.13
2018-11-01T01:10:40.355Z,101276.12
2018-11-01T01:11:43.051Z,101275.30
2018-11-01T01:12:46.767Z,101278.80
2018-11-01T01:13:49.409Z,101281.97
2018-11-01T01:14:51.991Z,101281.97
2018-11-01T01:15:54.589Z,101286.80
2018-11-01T01:16:57.290Z,101284.63
2018-11-01T01:17:59.875Z,101285.96
2018-11-01T01:19:02.765Z,101293.46
2018-11-01T01:20:07.582Z,101299.77
2018-11-01T01:21:10.183Z,101297.60
2018-11-01T01:22:12.895Z,101301.09
2018-11-01T01:23:15.483Z,101298.93
2018-11-01T01:24:18.081Z,101292.27
2018-11-01T01:25:20.688Z,101303.30
2018-11-01T01:26:23.319Z,101305.09
2018-11-01T01:27:26.200Z,101304.73
2018-11-01T01:28:28.912Z,101308.37
2018-11-01T01:29:31.547Z,101315.91
2018-11-01T01:30:34.136Z,101318.20
2018-11-01T01:31:36.767Z,101318.20
2018-11-01T01:32:39.466Z,101330.20
2018-11-01T01:33:42.105Z,101325.34
2018-11-01T01:34:45.067Z,101334.20
2018-11-01T01:35:47.680Z,101334.20
2018-11-01T01:36:50.323Z,101331.55
2018-11-01T01:37:53.016Z,101342.20
2018-11-01T01:38:55.607Z,101333.84
2018-11-01T01:39:58.214Z,101341.34
2018-11-01T01:41:00.807Z,101340.01
2018-11-01T01:42:03.455Z,101339.64
2018-11-01T01:43:06.047Z,101345.84
2018-11-01T01:44:08.635Z,101341.84
2018-11-01T01:45:11.243Z,101349.84
2018-11-01T01:46:13.963Z,101354.67
2018-11-01T01:47:16.551Z,101354.31
2018-11-01T01:48:19.258Z,101356.98
2018-11-01T01:49:21.847Z,101357.84
2018-11-01T01:50:24.523Z,101360.52
2018-11-01T01:51:27.071Z,101356.14
2018-11-01T01:52:29.675Z,101359.28
2018-11-01T01:53:32.376Z,101364.15
2018-11-01T01:54:34.979Z,101365.11
2018-11-01T01:55:37.578Z,101364.25
2018-11-01T01:56:40.172Z,101369.95
2018-11-01T01:57:42.826Z,101374.31
2018-11-01T01:58:45.515Z,101363.78
2018-11-01T01:59:48.097Z,101368.25
2018-11-01T02:00:50.677Z,101371.64
2018-11-01T02:01:53.274Z,101376.14
2018-11-01T02:02:55.867Z,101372.14
2018-11-01T02:03:58.566Z,101368.48
2018-11-01T02:05:01.179Z,101383.17
2018-11-01T02:06:04.083Z,101385.84
2018-11-01T02:07:06.701Z,101385.23
2018-11-01T02:08:09.303Z,101387.55
2018-11-01T02:09:12.823Z,101394.67
2018-11-01T02:10:16.340Z,101391.54
2018-11-01T02:11:18.943Z,101396.88
2018-11-01T02:12:21.563Z,101396.37
2018-11-01T02:13:24.147Z,101406.21
2018-11-01T02:14:26.738Z,101396.52
2018-11-01T02:15:29.339Z,101398.20
2018-11-01T02:16:31.951Z,101400.88
2018-11-01T02:17:34.555Z,101403.55
2018-11-01T02:18:37.134Z,101407.55
2018-11-01T02:19:39.747Z,101403.65
2018-11-01T02:20:42.355Z,101408.52
2018-11-01T02:21:44.947Z,101413.34
2018-11-01T02:22:47.563Z,101404.52
2018-11-01T02:23:50.166Z,101400.02
2018-11-01T02:24:52.883Z,101401.84
2018-11-01T02:25:55.491Z,101400.88
2018-11-01T02:26:58.119Z,101406.31
2018-11-01T02:28:20.407Z,101403.18
2018-11-01T02:29:23.026Z,101404.88
2018-11-01T02:30:25.866Z,101407.64
2018-11-01T02:31:28.515Z,101413.48
2018-11-01T02:32:31.088Z,101416.98
2018-11-01T02:33:33.668Z,101422.45
2018-11-01T02:34:36.275Z,101422.81
2018-11-01T02:35:38.996Z,101422.45
2018-11-01T02:36:41.606Z,101430.08
2018-11-01T02:37:44.820Z,101429.11
2018-11-01T02:38:47.505Z,101428.75
2018-11-01T02:39:50.052Z,101432.25
2018-11-01T02:40:52.764Z,101440.25
2018-11-01T02:41:55.376Z,101443.28
2018-11-01T02:42:57.982Z,101449.11
2018-11-01T02:44:00.572Z,101449.58
2018-11-01T02:45:03.280Z,101455.78
2018-11-01T02:46:05.970Z,101460.61
2018-11-01T02:47:08.551Z,101452.75
2018-11-01T02:48:11.144Z,101458.81
2018-11-01T02:49:13.879Z,101457.22
2018-11-01T02:50:16.479Z,101459.28
2018-11-01T02:51:19.183Z,101462.92
2018-11-01T02:52:22.004Z,101465.58
2018-11-01T02:53:24.591Z,101466.55
2018-11-01T02:54:27.183Z,101471.41
2018-11-01T02:55:29.777Z,101474.45
2018-11-01T02:56:32.471Z,101471.78
2018-11-01T02:57:35.068Z,101468.15
2018-11-01T02:58:37.673Z,101479.78
2018-11-01T02:59:40.307Z,101474.91
2018-11-01T03:00:42.884Z,101453.16
2018-11-01T03:01:45.782Z,101481.72
2018-11-01T03:02:48.405Z,101484.75
2018-11-01T03:03:51.003Z,101480.02
2018-11-01T03:04:53.593Z,101453.75
2018-11-01T03:05:56.179Z,101492.02
2018-11-01T03:06:58.794Z,101493.81
2018-11-01T03:08:01.387Z,101498.31
2018-11-01T03:09:05.140Z,101494.78
2018-11-01T03:10:09.349Z,101496.62
2018-11-01T03:11:11.972Z,101502.31
2018-11-01T03:12:21.100Z,101502.31
2018-11-01T03:13:23.791Z,101508.02
2018-11-01T03:14:26.389Z,101503.28
2018-11-01T03:15:28.987Z,101505.95
2018-11-01T03:16:31.578Z,101509.95
2018-11-01T03:17:34.263Z,101509.08
2018-11-01T03:18:36.869Z,101507.75
2018-11-01T03:19:39.467Z,101515.65
2018-11-01T03:20:42.067Z,101517.95
2018-11-01T03:21:44.759Z,101517.45
2018-11-01T03:22:47.351Z,101524.61
2018-11-01T03:23:49.955Z,101527.28
2018-11-01T03:24:52.550Z,101525.81
2018-11-01T03:25:55.132Z,101527.65
2018-11-01T03:26:57.743Z,101531.65
2018-11-01T03:28:00.444Z,101532.98
2018-11-01T03:29:03.056Z,101530.31
2018-11-01T03:30:06.309Z,101532.98
2018-11-01T03:31:08.930Z,101540.98
2018-11-01T03:32:11.763Z,101541.95
2018-11-01T03:33:14.467Z,101549.45
2018-11-01T03:34:17.075Z,101550.78
2018-11-01T03:35:19.732Z,101556.98
2018-11-01T03:36:22.315Z,101556.02
2018-11-01T03:37:24.945Z,101554.31
2018-11-01T03:38:27.800Z,101560.02
2018-11-01T03:39:30.280Z,101566.68
2018-11-01T03:40:32.938Z,101568.02
2018-11-01T03:41:35.687Z,101561.81
2018-11-01T03:42:38.805Z,101563.64
2018-11-01T03:43:41.487Z,101569.81
2018-11-01T03:44:44.123Z,101564.02
2018-11-01T03:45:46.785Z,101570.68
2018-11-01T03:46:49.419Z,101572.48
2018-11-01T03:47:52.011Z,101578.69
2018-11-01T03:48:54.699Z,101579.52
2018-11-01T03:49:57.316Z,101580.84
2018-11-01T03:50:59.904Z,101582.19
2018-11-01T03:52:02.582Z,101582.78
2018-11-01T03:53:05.420Z,101585.72
2018-11-01T03:54:08.560Z,101586.68
2018-11-01T03:55:11.858Z,101590.68
2018-11-01T03:56:14.460Z,101596.38
2018-11-01T03:57:17.050Z,101602.18
2018-11-01T03:58:19.657Z,101600.02
2018-11-01T03:59:22.375Z,101597.81
2018-11-01T04:00:24.967Z,101605.72
2018-11-01T04:01:27.553Z,101608.02
2018-11-01T04:02:30.152Z,101605.34
2018-11-01T04:03:33.035Z,101610.18
2018-11-01T04:04:35.608Z,101614.68
2018-11-01T04:05:38.196Z,101617.72
2018-11-01T04:06:40.815Z,101620.84
2018-11-01T04:07:43.438Z,101623.05
2018-11-01T04:08:46.053Z,101619.05
2018-11-01T04:09:48.735Z,101621.34
2018-11-01T04:10:51.342Z,101624.38
2018-11-01T04:11:53.933Z,101628.02
2018-11-01T04:12:56.523Z,101625.34
2018-11-01T04:13:59.117Z,101628.84
2018-11-01T04:15:01.924Z,101626.68
2018-11-01T04:16:04.515Z,101629.34
2018-11-01T04:17:07.218Z,101628.02
2018-11-01T04:18:09.736Z,101628.98
2018-11-01T04:19:12.381Z,101625.81
2018-11-01T04:20:14.980Z,101628.48
2018-11-01T04:21:17.611Z,101626.31
2018-11-01T04:22:20.203Z,101634.31
2018-11-01T04:23:22.949Z,101603.27
2018-11-01T04:24:25.441Z,101639.27
2018-11-01T04:25:28.028Z,101642.78
2018-11-01T04:26:30.652Z,101647.28
2018-11-01T04:27:33.255Z,101645.94
2018-11-01T04:28:35.867Z,101652.61
2018-11-01T04:29:38.463Z,101653.95
2018-11-01T04:30:41.156Z,101652.98
2018-11-01T04:31:43.766Z,101646.78
2018-11-01T04:32:46.347Z,101650.78
2018-11-01T04:33:49.017Z,101657.45
2018-11-01T04:34:51.551Z,101657.95
2018-11-01T04:35:54.272Z,101656.23
2018-11-01T04:36:56.888Z,101665.94
2018-11-01T04:37:59.493Z,101668.23
2018-11-01T04:39:02.171Z,101665.57
2018-11-01T04:40:05.715Z,101672.23
2018-11-01T04:41:08.433Z,101679.38
2018-11-01T04:42:12.675Z,101672.23
2018-11-01T04:43:15.329Z,101681.20
2018-11-01T04:44:17.963Z,101675.38
2018-11-01T04:45:20.525Z,101679.38
2018-11-01T04:46:23.235Z,101677.58
2018-11-01T04:47:25.915Z,101678.91
2018-11-01T04:48:28.476Z,101677.58
2018-11-01T04:49:31.071Z,101682.04
2018-11-01T04:50:33.688Z,101681.57
2018-11-01T04:51:36.547Z,101686.53
2018-11-01T04:52:39.383Z,101688.23
2018-11-01T04:53:41.975Z,101688.70
2018-11-01T04:54:44.567Z,101692.23
2018-11-01T04:55:47.162Z,101700.23
2018-11-01T04:56:49.743Z,101701.57
2018-11-01T04:57:52.323Z,101709.58
2018-11-01T04:58:54.919Z,101704.23
2018-11-01T04:59:57.507Z,101714.03
2018-11-01T05:01:00.110Z,101714.41
2018-11-01T05:02:02.816Z,101717.57
2018-11-01T05:03:05.847Z,101724.61
2018-11-01T05:04:08.455Z,101722.53
2018-11-01T05:05:11.329Z,101729.20
2018-11-01T05:06:13.795Z,101725.67
2018-11-01T05:07:16.395Z,101732.23
2018-11-01T05:08:18.983Z,101737.57
2018-11-01T05:09:21.565Z,101735.00
2018-11-01T05:10:24.143Z,101734.53
2018-11-01T05:11:26.741Z,101738.53
2018-11-01T05:12:29.425Z,101742.53
2018-11-01T05:13:32.021Z,101748.83
2018-11-01T05:14:34.605Z,101746.63
2018-11-01T05:15:37.204Z,101752.46
2018-11-01T05:16:39.812Z,101755.13
2018-11-01T05:17:42.518Z,101750.75
2018-11-01T05:18:45.501Z,101762.75
2018-11-01T05:19:48.099Z,101757.42
2018-11-01T05:20:50.695Z,101763.22
2018-11-01T05:21:53.275Z,101760.55
2018-11-01T05:22:55.991Z,101768.18
2018-11-01T05:24:00.376Z,101770.75
2018-11-01T05:25:03.039Z,101774.38
2018-11-01T05:26:05.814Z,101768.92
2018-11-01T05:27:08.407Z,101771.50
2018-11-01T05:28:11.104Z,101771.87
2018-11-01T05:29:13.715Z,101770.53
2018-11-01T05:30:16.318Z,101773.57
2018-11-01T05:31:18.966Z,101778.31
2018-11-01T05:32:21.598Z,101784.11
2018-11-01T05:33:24.537Z,101776.48
2018-11-01T05:34:27.202Z,101780.39
2018-11-01T05:35:29.858Z,101784.77
2018-11-01T05:36:32.518Z,101782.09
2018-11-01T05:37:35.159Z,101786.94
2018-11-01T05:38:38.087Z,101786.94
2018-11-01T05:39:40.746Z,101790.84
2018-11-01T05:40:43.386Z,101793.51
2018-11-01T05:41:46.039Z,101792.17
2018-11-01T05:42:48.698Z,101794.34
2018-11-01T05:43:51.610Z,101796.55
2018-11-01T05:44:54.248Z,101802.72
2018-11-01T05:45:57.473Z,101800.05
2018-11-01T05:47:00.130Z,101803.09
2018-11-01T05:48:02.788Z,101796.91
2018-11-01T05:49:06.163Z,101798.71
2018-11-01T05:50:08.879Z,101801.38
2018-11-01T05:51:11.526Z,101802.25
2018-11-01T05:52:14.175Z,101806.25
2018-11-01T05:53:16.818Z,101808.92
2018-11-01T05:54:19.900Z,101812.05
2018-11-01T05:55:22.539Z,101817.38
2018-11-01T05:56:25.166Z,101817.88
2018-11-01T05:57:27.806Z,101819.68
2018-11-01T05:58:30.481Z,101825.51
2018-11-01T05:59:33.130Z,101828.55
2018-11-01T06:00:35.801Z,101836.55
2018-11-01T06:01:42.957Z,101829.88
2018-11-01T06:02:47.491Z,101825.51
2018-11-01T06:03:50.146Z,101821.14
2018-11-01T06:04:53.334Z,101825.14
2018-11-01T06:05:55.974Z,101830.47
2018-11-01T06:06:58.668Z,101825.60
2018-11-01T06:08:04.506Z,101836.18
2018-11-01T06:09:09.138Z,101835.22
2018-11-01T06:10:11.891Z,101836.05
2018-11-01T06:11:14.554Z,101831.09
2018-11-01T06:12:17.239Z,101827.00
2018-11-01T06:13:19.926Z,101832.70
2018-11-01T06:14:22.574Z,101838.78
2018-11-01T06:15:25.306Z,101845.08
2018-11-01T06:16:27.942Z,101844.95
2018-11-01T06:17:30.582Z,101848.86
2018-11-01T06:18:33.330Z,101847.53
2018-11-01T06:19:35.984Z,101857.98
2018-11-01T06:20:38.817Z,101850.94
2018-11-01T06:21:41.550Z,101853.02
2018-11-01T06:22:44.198Z,101854.48
2018-11-01T06:23:49.586Z,101856.19
2018-11-01T06:24:52.235Z,101862.73
2018-11-01T06:25:54.977Z,101861.52
2018-11-01T06:26:57.648Z,101866.73
2018-11-01T06:28:00.282Z,101869.39
2018-11-01T06:29:02.934Z,101872.56
2018-11-01T06:30:08.916Z,101878.73
2018-11-01T06:31:11.658Z,101880.06
2018-11-01T06:32:14.310Z,101877.77
2018-11-01T06:33:16.942Z,101885.40
2018-11-01T06:34:23.738Z,101883.98
2018-11-01T06:35:29.798Z,101892.44
2018-11-01T06:36:32.546Z,101888.44
2018-11-01T06:37:35.194Z,101894.64
2018-11-01T06:38:38.040Z,101899.11
2018-11-01T06:39:40.676Z,101896.07
2018-11-01T06:40:43.342Z,101905.78
2018-11-01T06:41:46.086Z,101911.48
2018-11-01T06:42:48.751Z,101909.69
2018-11-01T06:43:51.391Z,101914.16
2018-11-01T06:44:54.084Z,101912.73
2018-11-01T06:45:56.712Z,101917.70
2018-11-01T06:46:59.447Z,101926.53
2018-11-01T06:48:02.134Z,101929.20
2018-11-01T06:49:05.172Z,101928.36
2018-11-01T06:50:07.902Z,101935.41
2018-11-01T06:51:10.553Z,101937.58
2018-11-01T06:52:13.296Z,101942.91
2018-11-01T06:53:15.970Z,101941.20
2018-11-01T06:54:18.605Z,101947.41
2018-11-01T06:55:21.276Z,101946.92
2018-11-01T06:56:23.934Z,101947.50
2018-11-01T06:57:26.686Z,101953.22
2018-11-01T06:58:29.447Z,101949.21
2018-11-01T06:59:32.087Z,101954.55
2018-11-01T07:00:34.678Z,101952.84
2018-11-01T07:01:37.329Z,101957.71
2018-11-01T07:02:40.278Z,101962.17
2018-11-01T07:03:43.119Z,101963.52
2018-11-01T07:04:45.763Z,101968.84
2018-11-01T07:05:48.439Z,101970.30
2018-11-01T07:06:51.072Z,101970.30
2018-11-01T07:07:53.825Z,101973.81
2018-11-01T07:08:56.474Z,101973.93
2018-11-01T07:09:59.102Z,101985.44
2018-11-01T07:11:01.762Z,101980.11
2018-11-01T07:12:04.426Z,101977.93
2018-11-01T07:13:07.074Z,101981.06
2018-11-01T07:14:10.081Z,101988.60
2018-11-01T07:15:13.966Z,101987.36
2018-11-01T07:16:16.606Z,101987.36
2018-11-01T07:17:19.371Z,101992.32
2018-11-01T07:18:22.010Z,101989.66
2018-11-01T07:19:24.646Z,101989.66
2018-11-01T07:20:27.306Z,101987.95
2018-11-01T07:21:29.979Z,101992.53
2018-11-01T07:22:32.622Z,101990.23
2018-11-01T07:23:35.362Z,101993.86
2018-11-01T07:24:38.026Z,101988.53
2018-11-01T07:25:40.805Z,101994.33
2018-11-01T07:26:43.406Z,101993.49
2018-11-01T07:27:46.090Z,101989.86
2018-11-01T07:28:48.766Z,101988.62
2018-11-01T07:29:51.406Z,101989.11
2018-11-01T07:30:54.038Z,101991.41
2018-11-01T07:31:56.694Z,101995.41
2018-11-01T07:32:59.355Z,101995.87
2018-11-01T07:34:02.122Z,101999.03
2018-11-01T07:35:05.248Z,102008.84
2018-11-01T07:36:07.894Z,102010.66
2018-11-01T07:37:10.542Z,102016.95
2018-11-01T07:38:13.187Z,102014.29
2018-11-01T07:39:15.933Z,102024.58
2018-11-01T07:40:19.138Z,102022.75
2018-11-01T07:41:21.770Z,102025.92
2018-11-01T07:42:24.398Z,102032.21
2018-11-01T07:43:27.047Z,102032.21
2018-11-01T07:44:29.802Z,102037.92
2018-11-01T07:45:32.430Z,102042.88
2018-11-01T07:46:35.078Z,102036.67
2018-11-01T07:47:38.206Z,102043.46
2018-11-01T07:48:40.951Z,102045.63
2018-11-01T07:49:43.633Z,102048.30
2018-11-01T07:50:46.266Z,102054.59
2018-11-01T07:51:48.924Z,102058.13
2018-11-01T07:52:51.650Z,102060.30
2018-11-01T07:53:54.222Z,102059.09
2018-11-01T07:54:56.964Z,102063.55
2018-11-01T07:55:59.610Z,102061.75
2018-11-01T07:57:02.254Z,102062.71
2018-11-01T07:58:05.062Z,102061.75
2018-11-01T07:59:07.745Z,102059.55
2018-11-01T08:00:12.499Z,102059.17
2018-11-01T08:01:15.157Z,102057.37
2018-11-01T08:02:17.799Z,102062.71
2018-11-01T08:03:20.437Z,102065.84
2018-11-01T08:04:23.071Z,102065.84
2018-11-01T08:05:25.891Z,102068.51
2018-11-01T08:06:28.519Z,102071.55
2018-11-01T08:07:31.164Z,102079.17
2018-11-01T08:08:33.834Z,102080.05
2018-11-01T08:09:36.470Z,102085.38
2018-11-01T08:10:39.222Z,102084.05
2018-11-01T08:11:41.908Z,102089.38
2018-11-01T08:12:45.258Z,102091.67
2018-11-01T08:13:47.890Z,102096.52
2018-11-01T08:14:50.542Z,102099.18
2018-11-01T08:15:53.290Z,102101.01
2018-11-01T08:16:55.935Z,102099.30
2018-11-01T08:17:58.574Z,102104.63
2018-11-01T08:19:01.447Z,102111.77
2018-11-01T08:20:04.539Z,102109.97
2018-11-01T08:21:07.322Z,102110.80
2018-11-01T08:22:09.899Z,102113.59
2018-11-01T08:23:12.546Z,102119.77
2018-11-01T08:24:15.194Z,102116.63
2018-11-01T08:25:17.836Z,102116.25
2018-11-01T08:26:20.475Z,102119.30
2018-11-01T08:27:23.143Z,102120.26
2018-11-01T08:28:25.786Z,102119.88
2018-11-01T08:29:28.430Z,102120.72
2018-11-01T08:30:31.078Z,102129.59
2018-11-01T08:31:33.842Z,102126.05
2018-11-01T08:32:36.484Z,102127.88
2018-11-01T08:33:39.122Z,102127.39
2018-11-01T08:34:41.756Z,102126.05
2018-11-01T08:35:44.402Z,102127.88
2018-11-01T08:36:47.143Z,102129.22
2018-11-01T08:37:49.778Z,102130.55
2018-11-01T08:38:52.424Z,102133.22
2018-11-01T08:39:55.065Z,102130.55
2018-11-01T08:40:57.743Z,102132.27
2018-11-01T08:42:00.628Z,102124.92
2018-11-01T08:43:03.307Z,102125.22
2018-11-01T08:44:06.158Z,102134.05
2018-11-01T08:45:10.506Z,102128.72
2018-11-01T08:46:13.293Z,102127.88
2018-11-01T08:47:16.037Z,102130.92
2018-11-01T08:48:18.669Z,102135.88
2018-11-01T08:49:21.355Z,102130.55
2018-11-01T08:50:24.002Z,102130.05
2018-11-01T08:51:26.662Z,102122.55
2018-11-01T08:52:29.446Z,102120.84
2018-11-01T08:53:32.252Z,102122.55
2018-11-01T08:54:34.978Z,102127.88
2018-11-01T08:55:37.626Z,102126.55
2018-11-01T08:56:40.262Z,102127.88
2018-11-01T08:57:43.883Z,102129.67
2018-11-01T08:58:46.522Z,102121.30
2018-11-01T08:59:49.174Z,102119.50
2018-11-01T09:00:51.850Z,102122.55
2018-11-01T09:01:54.511Z,102123.97
2018-11-01T09:02:57.258Z,102126.17
2018-11-01T09:03:59.916Z,102125.67
2018-11-01T09:05:02.600Z,102122.17
2018-11-01T09:06:05.262Z,102125.30
2018-11-01T09:07:07.918Z,102127.50
2018-11-01T09:08:10.676Z,102126.17
2018-11-01T09:09:13.374Z,102119.13
2018-11-01T09:10:16.753Z,102119.97
2018-11-01T09:11:19.478Z,102122.17
2018-11-01T09:12:22.138Z,102123.97
2018-11-01T09:13:24.927Z,102117.80
2018-11-01T09:14:27.622Z,102131.13
2018-11-01T09:15:30.246Z,102126.25
2018-11-01T09:16:32.892Z,102128.92
2018-11-01T09:17:35.611Z,102125.80
2018-11-01T09:18:38.403Z,102128.45
2018-11-01T09:19:41.099Z,102129.80
2018-11-01T09:20:43.746Z,102134.17
2018-11-01T09:21:46.574Z,102130.26
2018-11-01T09:22:49.219Z,102134.17
2018-11-01T09:23:51.970Z,102131.13
2018-11-01T09:24:54.635Z,102134.17
2018-11-01T09:25:57.278Z,102135.01
2018-11-01T09:27:00.044Z,102133.80
2018-11-01T09:28:02.623Z,102133.80
2018-11-01T09:29:05.586Z,102128.08
2018-11-01T09:30:11.293Z,102141.30
2018-11-01T09:31:13.949Z,102111.72
2018-11-01T09:32:16.594Z,102139.59
2018-11-01T09:33:19.236Z,102142.75
2018-11-01T09:34:21.984Z,102146.75
2018-11-01T09:35:24.715Z,102142.25
2018-11-01T09:36:27.358Z,102141.80
2018-11-01T09:37:30.004Z,102143.13
2018-11-01T09:38:32.673Z,102151.50
2018-11-01T09:39:35.441Z,102140.46
2018-11-01T09:40:38.106Z,102143.50
2018-11-01T09:41:40.861Z,102144.34
2018-11-01T09:42:44.078Z,102146.55
2018-11-01T09:43:46.932Z,102145.22
2018-11-01T09:44:49.586Z,102143.88
2018-11-01T09:45:52.313Z,102152.72
2018-11-01T09:46:55.278Z,102155.39
2018-11-01T09:47:57.630Z,102154.05
2018-11-01T09:49:00.284Z,102155.02
2018-11-01T09:50:03.074Z,102154.55
2018-11-01T09:51:06.042Z,102155.02
2018-11-01T09:52:08.691Z,102155.02
2018-11-01T09:53:11.338Z,102161.22
2018-11-01T09:54:13.987Z,102161.59
2018-11-01T09:55:16.778Z,102159.88
2018-11-01T09:56:19.516Z,102161.22
2018-11-01T09:57:22.163Z,102166.55
2018-11-01T09:58:24.829Z,102164.34
2018-11-01T09:59:27.491Z,102169.68
2018-11-01T10:00:30.226Z,102169.68
2018-11-01T10:01:32.878Z,102174.17
2018-11-01T10:02:35.550Z,102172.84
2018-11-01T10:03:38.194Z,102175.02
2018-11-01T10:04:40.852Z,102171.97
2018-11-01T10:05:43.615Z,102171.02
2018-11-01T10:06:46.319Z,102172.46
2018-11-01T10:07:48.958Z,102176.47
2018-11-01T10:08:51.594Z,102175.13
2018-11-01T10:09:54.247Z,102181.42
2018-11-01T10:10:56.990Z,102179.59
2018-11-01T10:11:59.628Z,102173.42
2018-11-01T10:13:02.272Z,102173.80
2018-11-01T10:14:05.418Z,102170.25
2018-11-01T10:15:08.722Z,102170.75
2018-11-01T10:16:11.729Z,102174.75
2018-11-01T10:17:14.567Z,102170.75
2018-11-01T10:18:17.190Z,102174.75
2018-11-01T10:19:19.558Z,102173.80
2018-11-01T10:20:22.198Z,102172.09
2018-11-01T10:21:25.037Z,102170.75
2018-11-01T10:22:27.722Z,102177.42
2018-11-01T10:23:30.311Z,102183.21
2018-11-01T10:24:32.968Z,102176.66
2018-11-01T10:25:35.646Z,102185.80
2018-11-01T10:26:38.611Z,102187.13
2018-11-01T10:27:41.396Z,102180.47
2018-11-01T10:28:43.970Z,102182.55
2018-11-01T10:29:46.619Z,102178.05
2018-11-01T10:30:49.378Z,102176.84
2018-11-01T10:31:52.119Z,102179.89
2018-11-01T10:32:54.760Z,102182.55
2018-11-01T10:33:57.444Z,102185.68
2018-11-01T10:35:00.099Z,102186.06
2018-11-01T10:36:02.742Z,102182.55
2018-11-01T10:37:05.510Z,102177.68
2018-11-01T10:38:08.193Z,102187.89
2018-11-01T10:39:11.166Z,102186.93
2018-11-01T10:40:14.936Z,102185.59
2018-11-01T10:41:17.635Z,102185.22
2018-11-01T10:42:20.374Z,102187.89
2018-11-01T10:43:23.034Z,102182.06
2018-11-01T10:44:25.696Z,102191.02
2018-11-01T10:45:28.366Z,102195.89
2018-11-01T10:46:31.012Z,102191.02
2018-11-01T10:47:33.737Z,102199.39
2018-11-01T10:48:36.365Z,102196.73
2018-11-01T10:49:39.006Z,102195.39
2018-11-01T10:50:41.651Z,102192.84
2018-11-01T10:51:44.290Z,102191.89
2018-11-01T10:52:47.046Z,102192.84
2018-11-01T10:53:49.738Z,102199.89
2018-11-01T10:54:52.371Z,102202.55
2018-11-01T10:55:55.050Z,102203.02
2018-11-01T10:56:57.686Z,102207.89
2018-11-01T10:58:00.467Z,102200.84
2018-11-01T10:59:03.138Z,102203.52
2018-11-01T11:00:07.688Z,102198.17
2018-11-01T11:01:15.782Z,102204.84
2018-11-01T11:02:25.937Z,102202.17
2018-11-01T11:03:28.763Z,102204.34
2018-11-01T11:04:31.406Z,102201.69
2018-11-01T11:05:34.066Z,102204.84
2018-11-01T11:06:36.747Z,102201.69
2018-11-01T11:07:39.376Z,102178.38
2018-11-01T11:08:42.115Z,102202.64
2018-11-01T11:09:44.770Z,102211.52
2018-11-01T11:10:47.422Z,102210.18
2018-11-01T11:11:50.146Z,102208.73
2018-11-01T11:12:52.853Z,102206.17
2018-11-01T11:13:55.578Z,102202.17
2018-11-01T11:14:58.230Z,102198.17
2018-11-01T11:16:00.882Z,102197.68
2018-11-01T11:17:03.636Z,102205.69
2018-11-01T11:18:06.602Z,102205.69
2018-11-01T11:19:09.246Z,102203.89
2018-11-01T11:20:12.397Z,102202.55
2018-11-01T11:21:15.287Z,102197.22
2018-11-01T11:22:17.654Z,102207.02
2018-11-01T11:23:20.302Z,102203.52
2018-11-01T11:24:23.058Z,102210.56
2018-11-01T11:25:25.706Z,102201.22
2018-11-01T11:26:28.379Z,102210.94
2018-11-01T11:27:31.037Z,102203.02
2018-11-01T11:28:33.674Z,102199.89
2018-11-01T11:29:36.422Z,102203.02
2018-11-01T11:30:39.191Z,102202.55
2018-11-01T11:31:41.754Z,102206.06
2018-11-01T11:32:44.414Z,102206.06
2018-11-01T11:33:47.070Z,102200.27
2018-11-01T11:34:49.822Z,102202.55
2018-11-01T11:35:52.528Z,102198.94
2018-11-01T11:36:55.170Z,102198.55
2018-11-01T11:37:57.824Z,102200.27
2018-11-01T11:39:00.503Z,102199.89
2018-11-01T11:40:03.355Z,102202.55
2018-11-01T11:41:06.032Z,102203.39
2018-11-01T11:42:08.693Z,102204.73
2018-11-01T11:43:11.339Z,102205.22
2018-11-01T11:44:13.982Z,102200.27
2018-11-01T11:45:16.744Z,102200.27
2018-11-01T11:46:19.390Z,102198.06
2018-11-01T11:47:22.034Z,102196.27
2018-11-01T11:48:24.722Z,102202.55
2018-11-01T11:49:27.363Z,102198.06
2018-11-01T11:50:30.106Z,102201.22
2018-11-01T11:51:32.781Z,102199.89
2018-11-01T11:52:35.434Z,102195.89
2018-11-01T11:53:38.070Z,102194.06
2018-11-01T11:54:40.718Z,102194.55
2018-11-01T11:55:43.467Z,102198.06
2018-11-01T11:56:46.131Z,102193.59